Terminal Aerodrome Forecast
Issued by NWS

Home | Current Version | Previous Version | Graphics & Text | Print | Product List | Glossary On
Versions: 1 2 3 4 5 6 7 8 9 10 11 12 13 14 15 16 17 18 19 20 21 22
000
FTUS43 KABR 210800 AAA
TAFATY
TAF AMD
KATY 210805Z 2108/2206 15006KT 5SM BR FEW250
      TEMPO 2112/2114 2SM BR BKN006
     FM211500 16009KT P6SM SCT250=

USA.gov is the U.S. government's official web portal to all federal, state and local government web resources and services.